sensor_id;sensor_type;location;lat;lon;timestamp;P1;durP1;ratioP1;P2;durP2;ratioP2
76322;SDS011;65141;42.964;21.838;2022-11-20T00:01:23;46.63;;;39.58;;
76322;SDS011;65141;42.964;21.838;2022-11-20T00:03:50;44.53;;;35.40;;
76322;SDS011;65141;42.964;21.838;2022-11-20T00:06:17;43.05;;;34.33;;
76322;SDS011;65141;42.964;21.838;2022-11-20T00:08:44;42.60;;;33.87;;
76322;SDS011;65141;42.964;21.838;2022-11-20T00:11:14;40.25;;;31.63;;
76322;SDS011;65141;42.964;21.838;2022-11-20T00:13:41;42.88;;;35.05;;
76322;SDS011;65141;42.964;21.838;2022-11-20T00:16:08;40.10;;;32.40;;
76322;SDS011;65141;42.964;21.838;2022-11-20T00:18:35;39.10;;;31.67;;
76322;SDS011;65141;42.964;21.838;2022-11-20T00:21:02;39.83;;;32.47;;
76322;SDS011;65141;42.964;21.838;2022-11-20T00:23:29;35.47;;;30.00;;
76322;SDS011;65141;42.964;21.838;2022-11-20T00:25:55;55.22;;;44.55;;
76322;SDS011;65141;42.964;21.838;2022-11-20T00:28:21;45.63;;;38.95;;
76322;SDS011;65141;42.964;21.838;2022-11-20T00:30:47;35.63;;;29.75;;
76322;SDS011;65141;42.964;21.838;2022-11-20T00:33:13;37.25;;;30.98;;
76322;SDS011;65141;42.964;21.838;2022-11-20T00:35:39;46.88;;;35.88;;
76322;SDS011;65141;42.964;21.838;2022-11-20T00:38:05;42.35;;;35.72;;
76322;SDS011;65141;42.964;21.838;2022-11-20T00:40:31;39.17;;;31.97;;
76322;SDS011;65141;42.964;21.838;2022-11-20T00:42:57;35.53;;;29.20;;
76322;SDS011;65141;42.964;21.838;2022-11-20T00:45:23;36.53;;;28.98;;
76322;SDS011;65141;42.964;21.838;2022-11-20T00:47:50;36.35;;;29.70;;
76322;SDS011;65141;42.964;21.838;2022-11-20T00:50:16;37.30;;;29.90;;
76322;SDS011;65141;42.964;21.838;2022-11-20T00:52:42;34.63;;;28.35;;
76322;SDS011;65141;42.964;21.838;2022-11-20T00:55:08;36.65;;;29.77;;
76322;SDS011;65141;42.964;21.838;2022-11-20T00:57:34;37.57;;;30.30;;
76322;SDS011;65141;42.964;21.838;2022-11-20T01:00:00;36.80;;;29.90;;
76322;SDS011;65141;42.964;21.838;2022-11-20T01:02:26;32.63;;;26.97;;
76322;SDS011;65141;42.964;21.838;2022-11-20T01:04:52;33.72;;;27.13;;
76322;SDS011;65141;42.964;21.838;2022-11-20T01:07:18;33.63;;;28.27;;
76322;SDS011;65141;42.964;21.838;2022-11-20T01:09:44;33.90;;;28.85;;
76322;SDS011;65141;42.964;21.838;2022-11-20T01:12:10;34.30;;;29.05;;
76322;SDS011;65141;42.964;21.838;2022-11-20T01:14:36;36.00;;;29.02;;
76322;SDS011;65141;42.964;21.838;2022-11-20T01:17:03;36.90;;;29.83;;
76322;SDS011;65141;42.964;21.838;2022-11-20T01:19:29;35.47;;;28.48;;
76322;SDS011;65141;42.964;21.838;2022-11-20T01:21:55;35.67;;;28.47;;
76322;SDS011;65141;42.964;21.838;2022-11-20T01:24:22;37.15;;;29.65;;
76322;SDS011;65141;42.964;21.838;2022-11-20T01:26:49;35.95;;;28.88;;
76322;SDS011;65141;42.964;21.838;2022-11-20T01:29:16;36.47;;;28.73;;
76322;SDS011;65141;42.964;21.838;2022-11-20T01:31:43;33.60;;;26.65;;
76322;SDS011;65141;42.964;21.838;2022-11-20T01:34:10;36.38;;;28.08;;
76322;SDS011;65141;42.964;21.838;2022-11-20T01:36:37;38.65;;;31.23;;
76322;SDS011;65141;42.964;21.838;2022-11-20T01:39:04;36.97;;;29.85;;
76322;SDS011;65141;42.964;21.838;2022-11-20T01:41:31;39.03;;;32.10;;
76322;SDS011;65141;42.964;21.838;2022-11-20T01:44:17;38.77;;;31.50;;
76322;SDS011;65141;42.964;21.838;2022-11-20T01:49:20;38.35;;;32.55;;
76322;SDS011;65141;42.964;21.838;2022-11-20T01:54:14;44.72;;;36.67;;
76322;SDS011;65141;42.964;21.838;2022-11-20T01:56:43;48.40;;;37.63;;
76322;SDS011;65141;42.964;21.838;2022-11-20T01:59:10;46.70;;;38.63;;
76322;SDS011;65141;42.964;21.838;2022-11-20T02:01:38;47.75;;;39.60;;
76322;SDS011;65141;42.964;21.838;2022-11-20T02:04:04;51.13;;;38.75;;
76322;SDS011;65141;42.964;21.838;2022-11-20T02:06:40;48.28;;;38.78;;
76322;SDS011;65141;42.964;21.838;2022-11-20T02:09:08;48.83;;;38.53;;
76322;SDS011;65141;42.964;21.838;2022-11-20T02:11:34;47.28;;;38.95;;
76322;SDS011;65141;42.964;21.838;2022-11-20T02:14:00;53.53;;;41.53;;
76322;SDS011;65141;42.964;21.838;2022-11-20T02:16:33;52.40;;;41.45;;
76322;SDS011;65141;42.964;21.838;2022-11-20T02:19:00;47.50;;;38.47;;
76322;SDS011;65141;42.964;21.838;2022-11-20T02:24:03;47.40;;;38.35;;
76322;SDS011;65141;42.964;21.838;2022-11-20T02:26:31;46.08;;;37.50;;
76322;SDS011;65141;42.964;21.838;2022-11-20T02:28:58;46.35;;;37.65;;
76322;SDS011;65141;42.964;21.838;2022-11-20T02:31:24;44.40;;;36.47;;
76322;SDS011;65141;42.964;21.838;2022-11-20T02:33:55;44.40;;;36.77;;
76322;SDS011;65141;42.964;21.838;2022-11-20T02:36:21;45.25;;;35.85;;
76322;SDS011;65141;42.964;21.838;2022-11-20T02:38:47;45.92;;;36.88;;
76322;SDS011;65141;42.964;21.838;2022-11-20T02:41:15;52.37;;;40.77;;
76322;SDS011;65141;42.964;21.838;2022-11-20T02:43:41;55.47;;;41.63;;
76322;SDS011;65141;42.964;21.838;2022-11-20T02:46:07;52.40;;;40.70;;
76322;SDS011;65141;42.964;21.838;2022-11-20T02:48:33;53.53;;;40.80;;
76322;SDS011;65141;42.964;21.838;2022-11-20T02:50:59;50.53;;;38.72;;
76322;SDS011;65141;42.964;21.838;2022-11-20T02:53:26;51.80;;;40.43;;
76322;SDS011;65141;42.964;21.838;2022-11-20T02:55:52;50.90;;;38.33;;
76322;SDS011;65141;42.964;21.838;2022-11-20T02:58:18;49.08;;;37.25;;
76322;SDS011;65141;42.964;21.838;2022-11-20T03:00:44;46.92;;;36.78;;
76322;SDS011;65141;42.964;21.838;2022-11-20T03:03:10;48.13;;;36.38;;
76322;SDS011;65141;42.964;21.838;2022-11-20T03:05:36;40.63;;;31.38;;
76322;SDS011;65141;42.964;21.838;2022-11-20T03:08:02;40.40;;;30.48;;
76322;SDS011;65141;42.964;21.838;2022-11-20T03:10:28;46.30;;;34.80;;
76322;SDS011;65141;42.964;21.838;2022-11-20T03:12:55;44.33;;;33.78;;
76322;SDS011;65141;42.964;21.838;2022-11-20T03:15:22;40.33;;;29.87;;
76322;SDS011;65141;42.964;21.838;2022-11-20T03:17:48;37.13;;;27.60;;
76322;SDS011;65141;42.964;21.838;2022-11-20T03:20:14;36.87;;;27.23;;
76322;SDS011;65141;42.964;21.838;2022-11-20T03:22:40;34.72;;;27.30;;
76322;SDS011;65141;42.964;21.838;2022-11-20T03:25:06;30.63;;;25.25;;
76322;SDS011;65141;42.964;21.838;2022-11-20T03:27:33;32.85;;;24.88;;
76322;SDS011;65141;42.964;21.838;2022-11-20T03:29:59;34.08;;;26.38;;
76322;SDS011;65141;42.964;21.838;2022-11-20T03:32:26;33.10;;;25.83;;
76322;SDS011;65141;42.964;21.838;2022-11-20T03:34:52;35.22;;;26.15;;
76322;SDS011;65141;42.964;21.838;2022-11-20T03:37:18;35.90;;;27.17;;
76322;SDS011;65141;42.964;21.838;2022-11-20T03:39:44;39.28;;;29.48;;
76322;SDS011;65141;42.964;21.838;2022-11-20T03:42:10;38.67;;;29.50;;
76322;SDS011;65141;42.964;21.838;2022-11-20T03:44:55;37.55;;;27.00;;
76322;SDS011;65141;42.964;21.838;2022-11-20T03:47:21;37.40;;;27.35;;
76322;SDS011;65141;42.964;21.838;2022-11-20T03:49:47;36.75;;;23.98;;
76322;SDS011;65141;42.964;21.838;2022-11-20T03:52:13;35.23;;;25.57;;
76322;SDS011;65141;42.964;21.838;2022-11-20T03:54:39;31.90;;;24.10;;
76322;SDS011;65141;42.964;21.838;2022-11-20T03:57:05;31.10;;;23.35;;
76322;SDS011;65141;42.964;21.838;2022-11-20T03:59:31;32.97;;;22.88;;
76322;SDS011;65141;42.964;21.838;2022-11-20T04:01:57;32.17;;;22.33;;
76322;SDS011;65141;42.964;21.838;2022-11-20T04:04:23;31.33;;;22.92;;
76322;SDS011;65141;42.964;21.838;2022-11-20T04:06:49;36.67;;;25.40;;
76322;SDS011;65141;42.964;21.838;2022-11-20T04:09:16;32.03;;;24.57;;
76322;SDS011;65141;42.964;21.838;2022-11-20T04:11:42;32.08;;;24.00;;
76322;SDS011;65141;42.964;21.838;2022-11-20T04:14:12;33.72;;;24.55;;
76322;SDS011;65141;42.964;21.838;2022-11-20T04:16:39;48.80;;;31.80;;
76322;SDS011;65141;42.964;21.838;2022-11-20T04:19:06;32.05;;;23.52;;
76322;SDS011;65141;42.964;21.838;2022-11-20T04:21:32;30.80;;;23.07;;
76322;SDS011;65141;42.964;21.838;2022-11-20T04:23:58;31.35;;;22.63;;
76322;SDS011;65141;42.964;21.838;2022-11-20T04:26:25;33.28;;;23.95;;
76322;SDS011;65141;42.964;21.838;2022-11-20T04:28:51;35.45;;;26.35;;
76322;SDS011;65141;42.964;21.838;2022-11-20T04:31:18;29.23;;;21.83;;
76322;SDS011;65141;42.964;21.838;2022-11-20T04:33:45;21.77;;;17.77;;
76322;SDS011;65141;42.964;21.838;2022-11-20T04:36:24;28.00;;;21.08;;
76322;SDS011;65141;42.964;21.838;2022-11-20T04:38:51;30.40;;;22.77;;
76322;SDS011;65141;42.964;21.838;2022-11-20T04:41:18;29.33;;;22.38;;
76322;SDS011;65141;42.964;21.838;2022-11-20T04:43:51;24.95;;;19.40;;
76322;SDS011;65141;42.964;21.838;2022-11-20T04:46:18;25.15;;;18.98;;
76322;SDS011;65141;42.964;21.838;2022-11-20T04:48:45;25.00;;;20.15;;
76322;SDS011;65141;42.964;21.838;2022-11-20T04:51:11;25.40;;;19.08;;
76322;SDS011;65141;42.964;21.838;2022-11-20T04:53:37;23.97;;;18.63;;
76322;SDS011;65141;42.964;21.838;2022-11-20T04:56:05;24.13;;;18.52;;
76322;SDS011;65141;42.964;21.838;2022-11-20T04:58:32;24.17;;;19.13;;
76322;SDS011;65141;42.964;21.838;2022-11-20T05:01:05;24.13;;;18.48;;
76322;SDS011;65141;42.964;21.838;2022-11-20T05:03:31;24.42;;;18.73;;
76322;SDS011;65141;42.964;21.838;2022-11-20T05:06:01;25.08;;;19.70;;
76322;SDS011;65141;42.964;21.838;2022-11-20T05:08:28;23.93;;;19.23;;
76322;SDS011;65141;42.964;21.838;2022-11-20T05:10:54;28.02;;;21.95;;
76322;SDS011;65141;42.964;21.838;2022-11-20T05:13:20;27.45;;;22.42;;
76322;SDS011;65141;42.964;21.838;2022-11-20T05:15:46;25.40;;;20.83;;
76322;SDS011;65141;42.964;21.838;2022-11-20T05:18:12;27.77;;;22.77;;
76322;SDS011;65141;42.964;21.838;2022-11-20T05:20:38;50.30;;;33.38;;
76322;SDS011;65141;42.964;21.838;2022-11-20T05:23:04;40.93;;;29.17;;
76322;SDS011;65141;42.964;21.838;2022-11-20T05:25:30;29.17;;;22.17;;
76322;SDS011;65141;42.964;21.838;2022-11-20T05:27:56;26.45;;;20.95;;
76322;SDS011;65141;42.964;21.838;2022-11-20T05:30:22;27.20;;;20.98;;
76322;SDS011;65141;42.964;21.838;2022-11-20T05:32:48;24.42;;;19.40;;
76322;SDS011;65141;42.964;21.838;2022-11-20T05:35:14;25.33;;;19.05;;
76322;SDS011;65141;42.964;21.838;2022-11-20T05:37:41;25.42;;;19.52;;
76322;SDS011;65141;42.964;21.838;2022-11-20T05:40:07;26.20;;;21.70;;
76322;SDS011;65141;42.964;21.838;2022-11-20T05:42:33;31.92;;;23.65;;
76322;SDS011;65141;42.964;21.838;2022-11-20T05:45:01;31.77;;;24.35;;
76322;SDS011;65141;42.964;21.838;2022-11-20T05:47:27;32.47;;;24.98;;
76322;SDS011;65141;42.964;21.838;2022-11-20T05:49:54;33.75;;;25.20;;
76322;SDS011;65141;42.964;21.838;2022-11-20T05:52:20;31.67;;;25.23;;
76322;SDS011;65141;42.964;21.838;2022-11-20T05:54:46;90.18;;;71.85;;
76322;SDS011;65141;42.964;21.838;2022-11-20T05:57:12;118.43;;;94.57;;
76322;SDS011;65141;42.964;21.838;2022-11-20T05:59:38;95.68;;;75.78;;
76322;SDS011;65141;42.964;21.838;2022-11-20T06:02:04;109.43;;;83.65;;
76322;SDS011;65141;42.964;21.838;2022-11-20T06:04:30;131.70;;;94.28;;
76322;SDS011;65141;42.964;21.838;2022-11-20T06:06:56;75.78;;;55.13;;
76322;SDS011;65141;42.964;21.838;2022-11-20T06:09:22;43.92;;;34.55;;
76322;SDS011;65141;42.964;21.838;2022-11-20T06:11:48;43.92;;;35.17;;
76322;SDS011;65141;42.964;21.838;2022-11-20T06:14:15;73.82;;;52.10;;
76322;SDS011;65141;42.964;21.838;2022-11-20T06:16:41;37.70;;;30.80;;
76322;SDS011;65141;42.964;21.838;2022-11-20T06:19:07;34.53;;;25.43;;
76322;SDS011;65141;42.964;21.838;2022-11-20T06:21:33;46.67;;;38.08;;
76322;SDS011;65141;42.964;21.838;2022-11-20T06:23:59;81.57;;;55.07;;
76322;SDS011;65141;42.964;21.838;2022-11-20T06:26:26;39.50;;;29.20;;
76322;SDS011;65141;42.964;21.838;2022-11-20T06:28:53;44.53;;;32.20;;
76322;SDS011;65141;42.964;21.838;2022-11-20T06:31:22;41.90;;;30.77;;
76322;SDS011;65141;42.964;21.838;2022-11-20T06:33:49;34.70;;;27.47;;
76322;SDS011;65141;42.964;21.838;2022-11-20T06:36:16;37.23;;;27.97;;
76322;SDS011;65141;42.964;21.838;2022-11-20T06:38:43;34.50;;;26.13;;
76322;SDS011;65141;42.964;21.838;2022-11-20T06:41:10;36.63;;;27.58;;
76322;SDS011;65141;42.964;21.838;2022-11-20T06:43:36;52.92;;;39.70;;
76322;SDS011;65141;42.964;21.838;2022-11-20T06:46:03;58.88;;;42.38;;
76322;SDS011;65141;42.964;21.838;2022-11-20T06:48:29;51.90;;;38.38;;
76322;SDS011;65141;42.964;21.838;2022-11-20T06:50:56;37.45;;;30.35;;
76322;SDS011;65141;42.964;21.838;2022-11-20T06:53:22;43.70;;;38.10;;
76322;SDS011;65141;42.964;21.838;2022-11-20T06:55:48;36.63;;;31.52;;
76322;SDS011;65141;42.964;21.838;2022-11-20T06:58:15;28.65;;;23.88;;
76322;SDS011;65141;42.964;21.838;2022-11-20T07:00:41;27.42;;;22.02;;
76322;SDS011;65141;42.964;21.838;2022-11-20T07:03:08;32.43;;;25.47;;
76322;SDS011;65141;42.964;21.838;2022-11-20T07:05:35;29.55;;;23.05;;
76322;SDS011;65141;42.964;21.838;2022-11-20T07:08:02;41.17;;;29.42;;
76322;SDS011;65141;42.964;21.838;2022-11-20T07:10:28;141.30;;;80.37;;
76322;SDS011;65141;42.964;21.838;2022-11-20T07:12:55;48.33;;;32.95;;
76322;SDS011;65141;42.964;21.838;2022-11-20T07:15:21;31.23;;;22.50;;
76322;SDS011;65141;42.964;21.838;2022-11-20T07:17:48;31.40;;;22.80;;
76322;SDS011;65141;42.964;21.838;2022-11-20T07:20:14;32.53;;;23.15;;
76322;SDS011;65141;42.964;21.838;2022-11-20T07:22:41;32.40;;;22.25;;
76322;SDS011;65141;42.964;21.838;2022-11-20T07:25:08;30.10;;;21.23;;
76322;SDS011;65141;42.964;21.838;2022-11-20T07:27:34;26.85;;;18.85;;
76322;SDS011;65141;42.964;21.838;2022-11-20T07:30:00;27.50;;;21.17;;
76322;SDS011;65141;42.964;21.838;2022-11-20T07:32:26;31.35;;;23.17;;
76322;SDS011;65141;42.964;21.838;2022-11-20T07:34:53;23.73;;;18.43;;
76322;SDS011;65141;42.964;21.838;2022-11-20T07:37:19;25.05;;;18.23;;
76322;SDS011;65141;42.964;21.838;2022-11-20T07:39:45;18.17;;;13.82;;
76322;SDS011;65141;42.964;21.838;2022-11-20T07:42:11;17.10;;;14.13;;
76322;SDS011;65141;42.964;21.838;2022-11-20T07:44:37;17.17;;;14.37;;
76322;SDS011;65141;42.964;21.838;2022-11-20T07:47:04;18.45;;;14.98;;
76322;SDS011;65141;42.964;21.838;2022-11-20T07:49:30;18.83;;;16.00;;
76322;SDS011;65141;42.964;21.838;2022-11-20T07:51:56;19.27;;;16.02;;
76322;SDS011;65141;42.964;21.838;2022-11-20T07:54:22;17.45;;;15.60;;
76322;SDS011;65141;42.964;21.838;2022-11-20T07:56:49;18.35;;;16.23;;
76322;SDS011;65141;42.964;21.838;2022-11-20T07:59:15;19.30;;;16.00;;
76322;SDS011;65141;42.964;21.838;2022-11-20T08:01:42;16.55;;;14.70;;
76322;SDS011;65141;42.964;21.838;2022-11-20T08:04:08;14.98;;;12.82;;
76322;SDS011;65141;42.964;21.838;2022-11-20T08:06:35;15.70;;;13.65;;
76322;SDS011;65141;42.964;21.838;2022-11-20T08:09:02;16.50;;;13.10;;
76322;SDS011;65141;42.964;21.838;2022-11-20T08:11:28;21.95;;;17.52;;
76322;SDS011;65141;42.964;21.838;2022-11-20T08:14:13;29.35;;;20.08;;
76322;SDS011;65141;42.964;21.838;2022-11-20T08:16:43;29.55;;;20.92;;
76322;SDS011;65141;42.964;21.838;2022-11-20T08:19:10;22.88;;;17.17;;
76322;SDS011;65141;42.964;21.838;2022-11-20T08:21:36;15.77;;;12.13;;
76322;SDS011;65141;42.964;21.838;2022-11-20T08:24:03;15.48;;;13.50;;
76322;SDS011;65141;42.964;21.838;2022-11-20T08:26:29;19.92;;;15.95;;
76322;SDS011;65141;42.964;21.838;2022-11-20T08:28:55;17.97;;;14.53;;
76322;SDS011;65141;42.964;21.838;2022-11-20T08:31:22;16.25;;;13.82;;
76322;SDS011;65141;42.964;21.838;2022-11-20T08:33:49;17.27;;;14.82;;
76322;SDS011;65141;42.964;21.838;2022-11-20T08:36:15;20.57;;;16.77;;
76322;SDS011;65141;42.964;21.838;2022-11-20T08:38:41;23.48;;;19.13;;
76322;SDS011;65141;42.964;21.838;2022-11-20T08:41:07;23.35;;;19.98;;
76322;SDS011;65141;42.964;21.838;2022-11-20T08:43:56;21.07;;;18.87;;
76322;SDS011;65141;42.964;21.838;2022-11-20T08:46:23;18.33;;;15.87;;
76322;SDS011;65141;42.964;21.838;2022-11-20T08:48:50;15.77;;;13.00;;
76322;SDS011;65141;42.964;21.838;2022-11-20T08:51:17;14.02;;;12.52;;
76322;SDS011;65141;42.964;21.838;2022-11-20T08:53:43;14.30;;;12.43;;
76322;SDS011;65141;42.964;21.838;2022-11-20T08:56:09;15.00;;;13.40;;
76322;SDS011;65141;42.964;21.838;2022-11-20T08:58:36;14.10;;;12.15;;
76322;SDS011;65141;42.964;21.838;2022-11-20T09:01:02;13.35;;;11.48;;
76322;SDS011;65141;42.964;21.838;2022-11-20T09:03:28;12.73;;;10.07;;
76322;SDS011;65141;42.964;21.838;2022-11-20T09:05:58;12.55;;;10.30;;
76322;SDS011;65141;42.964;21.838;2022-11-20T09:08:25;12.50;;;10.15;;
76322;SDS011;65141;42.964;21.838;2022-11-20T09:10:51;14.55;;;10.98;;
76322;SDS011;65141;42.964;21.838;2022-11-20T09:13:18;13.13;;;10.10;;
76322;SDS011;65141;42.964;21.838;2022-11-20T09:15:44;12.07;;;9.48;;
76322;SDS011;65141;42.964;21.838;2022-11-20T09:18:10;13.35;;;10.57;;
76322;SDS011;65141;42.964;21.838;2022-11-20T09:20:36;12.52;;;9.57;;
76322;SDS011;65141;42.964;21.838;2022-11-20T09:23:03;12.27;;;10.20;;
76322;SDS011;65141;42.964;21.838;2022-11-20T09:25:29;12.65;;;9.82;;
76322;SDS011;65141;42.964;21.838;2022-11-20T09:27:55;11.38;;;9.25;;
76322;SDS011;65141;42.964;21.838;2022-11-20T09:30:22;11.98;;;9.52;;
76322;SDS011;65141;42.964;21.838;2022-11-20T09:32:48;12.30;;;9.73;;
76322;SDS011;65141;42.964;21.838;2022-11-20T09:35:14;18.17;;;16.25;;
76322;SDS011;65141;42.964;21.838;2022-11-20T09:37:40;32.90;;;29.40;;
76322;SDS011;65141;42.964;21.838;2022-11-20T09:40:06;53.10;;;45.25;;
76322;SDS011;65141;42.964;21.838;2022-11-20T09:42:57;34.55;;;30.33;;
76322;SDS011;65141;42.964;21.838;2022-11-20T09:55:49;38.00;;;33.97;;
76322;SDS011;65141;42.964;21.838;2022-11-20T09:58:24;33.45;;;29.80;;
76322;SDS011;65141;42.964;21.838;2022-11-20T10:00:52;29.23;;;26.13;;
76322;SDS011;65141;42.964;21.838;2022-11-20T10:03:24;23.67;;;20.60;;
76322;SDS011;65141;42.964;21.838;2022-11-20T10:05:56;31.63;;;28.23;;
76322;SDS011;65141;42.964;21.838;2022-11-20T10:19:06;28.03;;;24.73;;
76322;SDS011;65141;42.964;21.838;2022-11-20T10:24:19;28.77;;;25.55;;
76322;SDS011;65141;42.964;21.838;2022-11-20T10:27:35;39.35;;;35.25;;
76322;SDS011;65141;42.964;21.838;2022-11-20T10:29:42;37.45;;;33.60;;
76322;SDS011;65141;42.964;21.838;2022-11-20T10:32:16;46.13;;;41.63;;
76322;SDS011;65141;42.964;21.838;2022-11-20T10:42:10;28.95;;;25.92;;
76322;SDS011;65141;42.964;21.838;2022-11-20T10:44:36;32.13;;;28.83;;
76322;SDS011;65141;42.964;21.838;2022-11-20T10:47:22;61.70;;;55.90;;
76322;SDS011;65141;42.964;21.838;2022-11-20T10:49:51;36.38;;;32.83;;
76322;SDS011;65141;42.964;21.838;2022-11-20T11:00:16;22.17;;;19.00;;
76322;SDS011;65141;42.964;21.838;2022-11-20T11:05:10;30.25;;;27.05;;
76322;SDS011;65141;42.964;21.838;2022-11-20T11:07:39;21.97;;;19.70;;
76322;SDS011;65141;42.964;21.838;2022-11-20T11:10:13;25.38;;;21.92;;
76322;SDS011;65141;42.964;21.838;2022-11-20T11:12:42;36.42;;;28.08;;
76322;SDS011;65141;42.964;21.838;2022-11-20T11:15:13;26.47;;;22.50;;
76322;SDS011;65141;42.964;21.838;2022-11-20T11:17:46;28.08;;;24.60;;
76322;SDS011;65141;42.964;21.838;2022-11-20T11:22:48;32.58;;;28.73;;
76322;SDS011;65141;42.964;21.838;2022-11-20T11:27:47;33.05;;;29.45;;
76322;SDS011;65141;42.964;21.838;2022-11-20T11:30:14;35.55;;;31.55;;
76322;SDS011;65141;42.964;21.838;2022-11-20T11:32:41;37.70;;;33.07;;
76322;SDS011;65141;42.964;21.838;2022-11-20T11:35:28;37.30;;;32.33;;
76322;SDS011;65141;42.964;21.838;2022-11-20T11:37:54;38.83;;;34.63;;
76322;SDS011;65141;42.964;21.838;2022-11-20T11:40:27;40.55;;;36.17;;
76322;SDS011;65141;42.964;21.838;2022-11-20T11:42:59;92.53;;;82.63;;
76322;SDS011;65141;42.964;21.838;2022-11-20T11:45:27;41.10;;;36.77;;
76322;SDS011;65141;42.964;21.838;2022-11-20T11:47:54;45.97;;;41.17;;
76322;SDS011;65141;42.964;21.838;2022-11-20T11:50:25;46.27;;;41.37;;
76322;SDS011;65141;42.964;21.838;2022-11-20T11:55:33;258.48;;;108.97;;
76322;SDS011;65141;42.964;21.838;2022-11-20T11:58:09;53.30;;;42.28;;
76322;SDS011;65141;42.964;21.838;2022-11-20T12:00:37;47.97;;;43.00;;
76322;SDS011;65141;42.964;21.838;2022-11-20T12:03:09;82.80;;;53.30;;
76322;SDS011;65141;42.964;21.838;2022-11-20T12:05:42;82.07;;;54.53;;
76322;SDS011;65141;42.964;21.838;2022-11-20T12:08:17;77.87;;;52.57;;
76322;SDS011;65141;42.964;21.838;2022-11-20T12:15:58;37.97;;;33.22;;
76322;SDS011;65141;42.964;21.838;2022-11-20T12:18:24;75.47;;;44.33;;
76322;SDS011;65141;42.964;21.838;2022-11-20T12:23:44;40.40;;;36.20;;
76322;SDS011;65141;42.964;21.838;2022-11-20T12:26:22;41.00;;;36.67;;
76322;SDS011;65141;42.964;21.838;2022-11-20T12:29:02;40.10;;;35.83;;
76322;SDS011;65141;42.964;21.838;2022-11-20T12:31:40;32.85;;;29.33;;
76322;SDS011;65141;42.964;21.838;2022-11-20T12:39:22;54.73;;;48.90;;
76322;SDS011;65141;42.964;21.838;2022-11-20T12:57:50;39.28;;;32.33;;
76322;SDS011;65141;42.964;21.838;2022-11-20T13:05:28;136.77;;;63.45;;
76322;SDS011;65141;42.964;21.838;2022-11-20T13:07:57;56.13;;;38.63;;
76322;SDS011;65141;42.964;21.838;2022-11-20T13:13:01;54.75;;;43.67;;
76322;SDS011;65141;42.964;21.838;2022-11-20T13:15:45;85.57;;;65.50;;
76322;SDS011;65141;42.964;21.838;2022-11-20T13:18:13;154.00;;;81.88;;
76322;SDS011;65141;42.964;21.838;2022-11-20T13:20:44;289.93;;;119.90;;
76322;SDS011;65141;42.964;21.838;2022-11-20T13:23:11;609.47;;;221.93;;
76322;SDS011;65141;42.964;21.838;2022-11-20T13:25:38;257.23;;;97.57;;
76322;SDS011;65141;42.964;21.838;2022-11-20T13:28:05;131.02;;;59.25;;
76322;SDS011;65141;42.964;21.838;2022-11-20T13:30:51;179.27;;;73.80;;
76322;SDS011;65141;42.964;21.838;2022-11-20T13:33:26;156.38;;;66.40;;
76322;SDS011;65141;42.964;21.838;2022-11-20T13:38:25;41.92;;;34.55;;
76322;SDS011;65141;42.964;21.838;2022-11-20T13:40:53;24.23;;;20.00;;
76322;SDS011;65141;42.964;21.838;2022-11-20T13:43:21;26.73;;;20.40;;
76322;SDS011;65141;42.964;21.838;2022-11-20T13:48:49;28.88;;;23.95;;
76322;SDS011;65141;42.964;21.838;2022-11-20T13:56:40;30.50;;;26.65;;
76322;SDS011;65141;42.964;21.838;2022-11-20T13:59:14;24.02;;;21.63;;
76322;SDS011;65141;42.964;21.838;2022-11-20T14:01:45;21.90;;;19.73;;
76322;SDS011;65141;42.964;21.838;2022-11-20T14:04:15;31.45;;;28.17;;
76322;SDS011;65141;42.964;21.838;2022-11-20T14:06:44;24.05;;;21.55;;
76322;SDS011;65141;42.964;21.838;2022-11-20T14:09:33;21.60;;;19.35;;
76322;SDS011;65141;42.964;21.838;2022-11-20T14:11:57;16.67;;;14.73;;
76322;SDS011;65141;42.964;21.838;2022-11-20T14:14:25;46.97;;;32.47;;
76322;SDS011;65141;42.964;21.838;2022-11-20T14:16:51;59.00;;;43.83;;
76322;SDS011;65141;42.964;21.838;2022-11-20T14:21:47;24.13;;;20.88;;
76322;SDS011;65141;42.964;21.838;2022-11-20T14:24:18;29.20;;;25.30;;
76322;SDS011;65141;42.964;21.838;2022-11-20T14:26:45;47.23;;;37.63;;
76322;SDS011;65141;42.964;21.838;2022-11-20T14:29:15;24.30;;;18.93;;
76322;SDS011;65141;42.964;21.838;2022-11-20T14:31:42;28.13;;;23.83;;
76322;SDS011;65141;42.964;21.838;2022-11-20T14:34:15;27.58;;;20.23;;
76322;SDS011;65141;42.964;21.838;2022-11-20T14:36:42;25.67;;;20.88;;
76322;SDS011;65141;42.964;21.838;2022-11-20T14:39:19;30.42;;;24.25;;
76322;SDS011;65141;42.964;21.838;2022-11-20T14:41:52;19.77;;;15.50;;
76322;SDS011;65141;42.964;21.838;2022-11-20T14:44:23;21.63;;;17.80;;
76322;SDS011;65141;42.964;21.838;2022-11-20T14:46:51;18.03;;;15.87;;
76322;SDS011;65141;42.964;21.838;2022-11-20T14:49:18;18.10;;;15.88;;
76322;SDS011;65141;42.964;21.838;2022-11-20T14:51:44;26.67;;;21.80;;
76322;SDS011;65141;42.964;21.838;2022-11-20T14:56:37;12.50;;;9.20;;
76322;SDS011;65141;42.964;21.838;2022-11-20T14:59:04;8.30;;;6.88;;
76322;SDS011;65141;42.964;21.838;2022-11-20T15:01:30;12.40;;;11.10;;
76322;SDS011;65141;42.964;21.838;2022-11-20T15:04:08;12.77;;;10.30;;
76322;SDS011;65141;42.964;21.838;2022-11-20T15:06:35;10.50;;;6.70;;
76322;SDS011;65141;42.964;21.838;2022-11-20T15:09:03;8.30;;;7.22;;
76322;SDS011;65141;42.964;21.838;2022-11-20T15:11:31;10.60;;;8.50;;
76322;SDS011;65141;42.964;21.838;2022-11-20T15:13:58;14.27;;;12.88;;
76322;SDS011;65141;42.964;21.838;2022-11-20T15:16:27;10.38;;;9.27;;
76322;SDS011;65141;42.964;21.838;2022-11-20T15:18:53;11.90;;;10.70;;
76322;SDS011;65141;42.964;21.838;2022-11-20T15:21:20;13.48;;;12.18;;
76322;SDS011;65141;42.964;21.838;2022-11-20T15:23:46;8.82;;;7.15;;
76322;SDS011;65141;42.964;21.838;2022-11-20T15:26:13;23.40;;;16.97;;
76322;SDS011;65141;42.964;21.838;2022-11-20T15:28:41;67.00;;;23.27;;
76322;SDS011;65141;42.964;21.838;2022-11-20T15:31:17;16.95;;;8.98;;
76322;SDS011;65141;42.964;21.838;2022-11-20T15:33:43;8.48;;;3.58;;
76322;SDS011;65141;42.964;21.838;2022-11-20T15:36:10;12.48;;;5.43;;
76322;SDS011;65141;42.964;21.838;2022-11-20T15:38:36;12.15;;;5.95;;
76322;SDS011;65141;42.964;21.838;2022-11-20T15:41:02;15.37;;;9.33;;
76322;SDS011;65141;42.964;21.838;2022-11-20T15:43:28;15.95;;;8.80;;
76322;SDS011;65141;42.964;21.838;2022-11-20T15:46:05;11.10;;;6.57;;
76322;SDS011;65141;42.964;21.838;2022-11-20T15:48:34;14.85;;;9.60;;
76322;SDS011;65141;42.964;21.838;2022-11-20T15:53:37;21.35;;;14.25;;
76322;SDS011;65141;42.964;21.838;2022-11-20T15:56:04;23.27;;;16.85;;
76322;SDS011;65141;42.964;21.838;2022-11-20T15:58:30;20.20;;;16.05;;
76322;SDS011;65141;42.964;21.838;2022-11-20T16:00:56;18.25;;;15.63;;
76322;SDS011;65141;42.964;21.838;2022-11-20T16:03:22;19.88;;;16.23;;
76322;SDS011;65141;42.964;21.838;2022-11-20T16:05:48;22.85;;;17.88;;